Time;durP1;ratioP1;P1;durP2;ratioP2;P2;SDS_P1;SDS_P2;PMS_P1;PMS_P2;Temp;Humidity;BMP_temperature;BMP_pressure;BME280_temperature;BME280_humidity;BME280_pressure;Samples;Min_cycle;Max_cycle;Signal;HPM_P1;HPM_P2
2022/09/08 00:01:00;;;;;;;4.13;3.23;;;;;;;18.55;100.00;95829.06;5031873;28;104224;-62
2022/09/08 00:03:29;;;;;;;3.50;3.30;;;;;;;18.57;100.00;95838.44;5031338;27;101897;-62
2022/09/08 00:09:19;;;;;;;5.13;3.10;;;;;;;18.59;100.00;95838.91;5025359;27;101782;-62
2022/09/08 00:11:47;;;;;;;3.20;2.90;;;;;;;18.59;100.00;95838.13;5052985;27;101862;-62
2022/09/08 00:14:16;;;;;;;4.00;3.07;;;;;;;18.59;100.00;95830.03;5047567;27;104927;-62
2022/09/08 00:16:48;;;;;;;3.13;2.57;;;;;;;18.63;100.00;95823.72;5032614;27;102281;-62
2022/09/08 00:19:31;;;;;;;3.33;2.37;;;;;;;18.66;100.00;95823.09;5035456;27;101914;-62
2022/09/08 00:21:58;;;;;;;3.27;2.40;;;;;;;18.61;100.00;95825.13;5052331;27;103045;-62
2022/09/08 00:24:25;;;;;;;3.43;2.80;;;;;;;18.59;100.00;95821.97;5046517;27;102000;-61
2022/09/08 00:26:52;;;;;;;2.67;2.47;;;;;;;18.61;100.00;95825.13;5041290;27;102713;-62
2022/09/08 00:29:21;;;;;;;3.53;2.87;;;;;;;18.62;100.00;95830.22;5032043;28;102683;-62
2022/09/08 00:31:48;;;;;;;4.13;2.50;;;;;;;18.58;100.00;95831.94;5032063;27;102243;-62
2022/09/08 00:34:14;;;;;;;3.83;2.50;;;;;;;18.58;100.00;95839.22;5032127;27;102662;-62
2022/09/08 00:36:41;;;;;;;2.73;2.53;;;;;;;18.58;100.00;95839.22;5033733;28;105858;-62
2022/09/08 00:39:08;;;;;;;2.90;2.60;;;;;;;18.60;100.00;95828.94;5036845;27;102186;-61
2022/09/08 00:41:36;;;;;;;2.73;2.53;;;;;;;18.63;100.00;95833.69;5051930;27;103144;-62
2022/09/08 00:44:40;;;;;;;6.10;2.57;;;;;;;18.63;100.00;95847.16;5051984;27;103419;-62
2022/09/08 00:47:16;;;;;;;4.23;2.73;;;;;;;18.57;100.00;95840.31;5050921;27;105103;-61
2022/09/08 00:49:51;;;;;;;5.67;2.97;;;;;;;18.62;100.00;95843.66;5048258;27;105871;-61
2022/09/08 00:52:19;;;;;;;2.97;2.63;;;;;;;18.58;100.00;95842.69;5050859;27;102240;-61
2022/09/08 00:54:47;;;;;;;3.57;2.70;;;;;;;18.68;100.00;95842.41;5046542;27;105250;-61
2022/09/08 00:57:30;;;;;;;4.17;2.53;;;;;;;18.69;100.00;95844.00;5031076;27;102679;-61
2022/09/08 00:59:59;;;;;;;3.20;2.57;;;;;;;18.67;100.00;95848.09;5051831;27;101867;-61
2022/09/08 01:02:27;;;;;;;4.97;2.80;;;;;;;18.64;100.00;95846.84;5050153;27;105332;-62
2022/09/08 01:04:59;;;;;;;5.03;2.63;;;;;;;18.68;100.00;95847.81;5047431;27;101839;-62
2022/09/08 01:13:20;;;;;;;3.73;2.17;;;;;;;18.67;100.00;95845.41;5033061;27;101972;-62
2022/09/08 01:16:08;;;;;;;4.73;2.50;;;;;;;18.58;100.00;95840.00;5039615;27;105139;-61
2022/09/08 01:18:38;;;;;;;4.23;2.43;;;;;;;18.61;100.00;95833.22;5030789;27;103764;-62
2022/09/08 01:21:16;;;;;;;3.80;2.63;;;;;;;18.59;100.00;95843.50;5033677;28;101867;-61
2022/09/08 01:24:11;;;;;;;3.10;2.27;;;;;;;18.63;100.00;95850.63;5029492;27;105197;-61
2022/09/08 01:27:24;;;;;;;4.33;2.50;;;;;;;18.63;100.00;95860.63;5048483;27;101977;-62
2022/09/08 01:29:58;;;;;;;3.73;2.47;;;;;;;18.66;100.00;95862.69;5051444;27;102909;-61
2022/09/08 01:32:29;;;;;;;4.50;2.40;;;;;;;18.60;100.00;95862.06;5049745;27;105824;-61
2022/09/08 01:34:55;;;;;;;3.43;2.30;;;;;;;18.55;100.00;95862.19;5046440;27;101900;-61
2022/09/08 01:38:01;;;;;;;3.90;2.43;;;;;;;18.55;100.00;95874.84;5031426;28;102477;-62
2022/09/08 01:40:28;;;;;;;2.97;2.00;;;;;;;18.56;100.00;95873.75;5010585;28;103169;-61
2022/09/08 01:42:55;;;;;;;3.03;2.33;;;;;;;18.57;100.00;95868.06;5013626;27;101982;-61
2022/09/08 01:45:25;;;;;;;2.93;2.10;;;;;;;18.55;100.00;95866.78;5038970;27;105076;-61
2022/09/08 01:47:52;;;;;;;2.73;2.17;;;;;;;18.49;100.00;95865.34;5047875;27;101716;-61
2022/09/08 01:50:21;;;;;;;3.77;2.37;;;;;;;18.45;100.00;95864.38;5030952;28;105090;-61
2022/09/08 01:52:48;;;;;;;5.93;2.10;;;;;;;18.39;100.00;95860.22;5030490;27;102826;-62
2022/09/08 01:55:16;;;;;;;3.10;2.20;;;;;;;18.39;100.00;95854.84;5034239;27;102319;-62
2022/09/08 01:57:43;;;;;;;3.27;2.30;;;;;;;18.34;100.00;95854.97;5049540;27;104759;-61
2022/09/08 02:00:11;;;;;;;2.10;2.00;;;;;;;18.29;100.00;95855.91;5050748;27;102774;-62
2022/09/08 02:02:41;;;;;;;3.53;2.03;;;;;;;18.31;100.00;95856.38;5049669;27;101850;-61
2022/09/08 02:05:09;;;;;;;3.50;2.10;;;;;;;18.27;100.00;95851.94;5018226;27;104134;-61
2022/09/08 02:07:37;;;;;;;3.00;2.00;;;;;;;18.32;100.00;95866.06;5053469;27;102585;-62
2022/09/08 02:10:05;;;;;;;2.37;1.90;;;;;;;18.28;100.00;95861.59;5050614;27;102386;-62
2022/09/08 02:12:32;;;;;;;2.43;2.20;;;;;;;18.26;100.00;95851.13;5050392;27;103209;-62
2022/09/08 02:14:59;;;;;;;2.00;1.80;;;;;;;18.26;100.00;95861.88;5032056;27;102029;-62
2022/09/08 02:17:28;;;;;;;3.23;1.77;;;;;;;18.29;100.00;95860.47;5047945;27;105581;-61
2022/09/08 02:20:04;;;;;;;1.83;1.73;;;;;;;18.21;100.00;95858.56;5050147;27;102485;-62
2022/09/08 02:22:32;;;;;;;4.03;2.00;;;;;;;18.21;100.00;95850.47;5048429;27;101764;-61
2022/09/08 02:24:59;;;;;;;4.40;2.10;;;;;;;18.17;100.00;95858.38;5050696;27;102400;-62
2022/09/08 02:28:03;;;;;;;2.57;1.90;;;;;;;18.18;100.00;95857.28;5028814;27;105440;-62
2022/09/08 02:30:30;;;;;;;2.77;2.07;;;;;;;18.16;100.00;95862.16;5034443;27;101890;-61
2022/09/08 02:32:57;;;;;;;3.83;2.17;;;;;;;18.13;100.00;95848.53;5028428;28;104006;-61
2022/09/08 02:35:26;;;;;;;3.60;1.90;;;;;;;18.14;100.00;95836.69;5031222;27;101950;-62
2022/09/08 02:37:53;;;;;;;3.60;1.90;;;;;;;18.17;100.00;95834.16;5049803;27;102339;-61
2022/09/08 02:40:20;;;;;;;2.43;1.60;;;;;;;18.15;100.00;95838.28;5046528;27;105797;-61
2022/09/08 02:42:47;;;;;;;3.07;1.80;;;;;;;18.14;100.00;95836.69;5030546;28;101863;-62
2022/09/08 02:45:15;;;;;;;1.80;1.60;;;;;;;18.11;100.00;95823.84;5030350;27;102343;-62
2022/09/08 02:47:42;;;;;;;3.47;1.70;;;;;;;18.11;100.00;95818.47;5028693;27;105373;-62
2022/09/08 02:50:19;;;;;;;1.97;1.70;;;;;;;18.06;100.00;95824.78;5030464;27;102161;-62
2022/09/08 02:52:47;;;;;;;1.70;1.60;;;;;;;18.07;100.00;95822.88;5013026;28;102399;-61
2022/09/08 02:55:14;;;;;;;1.83;1.73;;;;;;;18.05;100.00;95825.09;5042930;27;101873;-62
2022/09/08 02:57:41;;;;;;;2.13;1.80;;;;;;;18.01;100.00;95824.13;5050124;27;102344;-61
2022/09/08 03:00:09;;;;;;;3.37;1.80;;;;;;;18.01;100.00;95810.66;5049419;27;103075;-62
2022/09/08 03:02:36;;;;;;;2.10;1.60;;;;;;;18.01;100.00;95803.41;5008777;28;101958;-62
2022/09/08 03:05:04;;;;;;;2.53;1.80;;;;;;;18.03;100.00;95803.88;5008699;28;105598;-61
2022/09/08 03:07:41;;;;;;;1.80;1.70;;;;;;;18.02;100.00;95799.59;5028559;27;104774;-62
2022/09/08 03:10:10;;;;;;;1.70;1.60;;;;;;;18.00;100.00;95801.00;5030270;27;101731;-62
2022/09/08 03:12:37;;;;;;;1.93;1.80;;;;;;;17.99;100.00;95802.13;5009801;28;102260;-62
2022/09/08 03:15:04;;;;;;;2.03;1.70;;;;;;;18.00;100.00;95803.69;5012870;28;103057;-62
2022/09/08 03:17:31;;;;;;;3.60;1.60;;;;;;;18.06;100.00;95797.88;5029552;27;104211;-62
2022/09/08 03:19:59;;;;;;;3.00;1.63;;;;;;;17.95;100.00;95801.94;5029249;28;102602;-62
2022/09/08 03:22:26;;;;;;;1.37;1.37;;;;;;;17.83;100.00;95801.72;5046767;27;102033;-61
2022/09/08 03:24:53;;;;;;;1.80;1.53;;;;;;;17.76;100.00;95793.31;5048852;27;105532;-62
2022/09/08 03:27:29;;;;;;;1.67;1.57;;;;;;;17.77;100.00;95796.81;5049075;27;103621;-62
2022/09/08 03:29:55;;;;;;;1.67;1.57;;;;;;;17.70;100.00;95804.50;5048842;27;101790;-62
2022/09/08 03:32:23;;;;;;;1.83;1.73;;;;;;;17.66;100.00;95795.47;5030345;27;105925;-61
2022/09/08 03:34:50;;;;;;;1.90;1.70;;;;;;;17.63;100.00;95809.53;5035720;27;103048;-62
2022/09/08 03:37:24;;;;;;;1.57;1.47;;;;;;;17.62;100.00;95800.69;5050120;27;102358;-62
2022/09/08 03:39:51;;;;;;;2.07;1.73;;;;;;;17.53;100.00;95788.28;5012410;28;102771;-62
2022/09/08 03:42:18;;;;;;;2.50;1.67;;;;;;;17.59;100.00;95795.09;5047796;27;101870;-61
2022/09/08 03:44:47;;;;;;;3.90;1.83;;;;;;;17.51;100.00;95803.94;5041067;27;102369;-62
2022/09/08 03:47:20;;;;;;;2.57;1.90;;;;;;;17.51;100.00;95803.94;5032202;28;101714;-62
2022/09/08 03:50:42;;;;;;;3.77;1.97;;;;;;;17.51;100.00;95798.56;5033203;27;101908;-62
2022/09/08 03:53:10;;;;;;;1.70;1.60;;;;;;;17.51;100.00;95791.28;5012935;28;102377;-61
2022/09/08 03:55:56;;;;;;;1.67;1.50;;;;;;;17.48;100.00;95791.91;5013969;27;104505;-62
2022/09/08 03:58:23;;;;;;;1.77;1.53;;;;;;;17.50;100.00;95797.75;5043686;27;101812;-62
2022/09/08 04:00:51;;;;;;;2.03;1.70;;;;;;;17.50;100.00;95795.06;5046321;27;105667;-62
2022/09/08 04:03:18;;;;;;;2.30;1.80;;;;;;;17.50;100.00;95799.66;5032832;28;102272;-62
2022/09/08 04:05:59;;;;;;;2.50;2.30;;;;;;;17.51;100.00;95799.38;5031149;27;105140;-62
2022/09/08 04:08:26;;;;;;;1.80;1.70;;;;;;;17.50;100.00;95796.97;5030389;27;105744;-62
2022/09/08 04:10:54;;;;;;;1.77;1.50;;;;;;;17.46;100.00;95793.31;5033956;27;101885;-62
2022/09/08 04:13:20;;;;;;;2.20;1.70;;;;;;;17.45;100.00;95786.34;5032379;28;104422;-62
2022/09/08 04:15:48;;;;;;;3.97;1.90;;;;;;;17.41;100.00;95785.38;5031947;27;103030;-62
2022/09/08 04:18:16;;;;;;;1.57;1.47;;;;;;;17.40;100.00;95789.97;5031103;27;101829;-61
2022/09/08 04:21:13;;;;;;;2.67;1.93;;;;;;;17.49;100.00;95798.84;5033797;28;105562;-62
2022/09/08 04:23:40;;;;;;;1.70;1.50;;;;;;;17.65;100.00;95791.22;5010950;28;101874;-62
2022/09/08 04:26:11;;;;;;;2.30;1.67;;;;;;;17.74;100.00;95790.16;5014141;27;102298;-61
2022/09/08 04:28:39;;;;;;;1.90;1.80;;;;;;;17.76;100.00;95801.38;5038072;27;106676;-61
2022/09/08 04:31:06;;;;;;;3.83;1.90;;;;;;;17.83;100.00;95792.88;5032567;27;101851;-62
2022/09/08 04:33:36;;;;;;;2.23;1.87;;;;;;;17.77;100.00;95786.03;5030872;27;105614;-62
2022/09/08 04:36:54;;;;;;;2.97;1.50;;;;;;;17.58;100.00;95769.31;5031609;28;103135;-61
2022/09/08 04:39:21;;;;;;;3.20;1.70;;;;;;;17.45;100.00;95786.34;5031541;27;101946;-61
2022/09/08 04:41:48;;;;;;;2.17;1.70;;;;;;;17.45;100.00;95802.47;5042507;27;102415;-62
2022/09/08 04:44:15;;;;;;;2.03;1.73;;;;;;;17.42;100.00;95811.94;5053793;27;105306;-62
2022/09/08 04:46:43;;;;;;;1.80;1.70;;;;;;;17.48;100.00;95809.91;5041909;27;102352;-61
2022/09/08 04:52:33;;;;;;;1.87;1.77;;;;;;;17.43;100.00;95837.72;5048029;27;102075;-61
2022/09/08 04:55:02;;;;;;;1.87;1.77;;;;;;;17.53;100.00;95847.44;5050544;27;102482;-61
2022/09/08 04:57:37;;;;;;;2.50;1.83;;;;;;;17.65;100.00;95840.38;5046925;27;104197;-61
2022/09/08 05:00:07;;;;;;;2.37;2.10;;;;;;;17.66;100.00;95839.28;5031718;28;101793;-61
2022/09/08 05:02:34;;;;;;;2.57;2.00;;;;;;;17.61;100.00;95844.78;5047592;27;102304;-61
2022/09/08 05:05:01;;;;;;;5.47;1.80;;;;;;;17.40;100.00;95851.78;5031095;27;103503;-61
2022/09/08 05:07:30;;;;;;;2.57;1.73;;;;;;;17.37;100.00;95846.19;5035273;27;101833;-62
2022/09/08 05:09:59;;;;;;;3.00;2.23;;;;;;;17.34;100.00;95852.19;5031077;28;102580;-61
2022/09/08 05:12:27;;;;;;;4.33;2.00;;;;;;;17.41;100.00;95852.56;5046443;27;101910;-61
2022/09/08 05:14:54;;;;;;;2.33;2.00;;;;;;;17.39;100.00;95858.25;5052033;27;102415;-62
2022/09/08 05:17:47;;;;;;;3.77;1.80;;;;;;;17.35;100.00;95859.13;5050307;27;104369;-61
2022/09/08 05:20:31;;;;;;;1.77;1.67;;;;;;;17.55;100.00;95877.50;5050661;27;101893;-61
2022/09/08 05:22:58;;;;;;;2.47;1.90;;;;;;;17.65;100.00;95871.88;5032420;27;102436;-61
2022/09/08 05:25:28;;;;;;;2.57;2.00;;;;;;;17.72;100.00;95869.53;5044859;27;102975;-61
2022/09/08 05:27:55;;;;;;;2.70;1.63;;;;;;;17.73;100.00;95860.38;5051353;27;102240;-62
2022/09/08 05:30:22;;;;;;;2.60;1.57;;;;;;;17.74;100.00;95875.41;5052529;27;104573;-61
2022/09/08 05:32:49;;;;;;;1.90;1.80;;;;;;;17.76;100.00;95881.28;5051002;27;101868;-61
2022/09/08 05:35:16;;;;;;;3.17;1.80;;;;;;;17.80;100.00;95891.13;5048247;27;105223;-61
2022/09/08 05:37:43;;;;;;;2.50;2.10;;;;;;;17.81;100.00;95889.19;5036208;27;102660;-62
2022/09/08 05:40:11;;;;;;;3.07;2.30;;;;;;;17.72;100.00;95891.06;5042717;27;101873;-62
2022/09/08 05:42:39;;;;;;;3.67;2.10;;;;;;;17.69;100.00;95908.59;5029893;28;103774;-61
2022/09/08 05:45:08;;;;;;;2.37;2.13;;;;;;;17.53;100.00;95911.94;5031204;27;102538;-61
2022/09/08 05:47:40;;;;;;;3.17;2.10;;;;;;;17.67;100.00;95915.38;5050693;27;101899;-61
2022/09/08 05:50:46;;;;;;;2.10;1.73;;;;;;;17.53;100.00;95922.69;5051040;27;105329;-61
2022/09/08 05:53:14;;;;;;;3.57;1.90;;;;;;;17.55;100.00;95924.00;5050600;27;101893;-61
2022/09/08 05:55:43;;;;;;;2.90;1.90;;;;;;;17.54;100.00;95941.22;5051320;27;102305;-61
2022/09/08 05:58:12;;;;;;;4.10;2.20;;;;;;;17.35;100.00;95943.25;5048640;27;102564;-61
2022/09/08 06:00:40;;;;;;;2.60;2.40;;;;;;;17.27;100.00;95951.25;5050162;27;102264;-61
2022/09/08 06:03:06;;;;;;;2.77;1.90;;;;;;;17.31;100.00;95952.22;5050934;27;102813;-62
2022/09/08 06:06:08;;;;;;;1.67;1.57;;;;;;;17.26;100.00;95955.00;5050427;27;104077;-62
2022/09/08 06:08:35;;;;;;;2.83;1.70;;;;;;;17.31;100.00;95957.59;5038285;27;101877;-61
2022/09/08 06:11:02;;;;;;;2.60;1.97;;;;;;;17.23;100.00;95955.63;5030614;27;102289;-61
2022/09/08 06:13:32;;;;;;;3.00;1.40;;;;;;;17.25;100.00;95958.81;5044817;27;102619;-63
2022/09/08 06:16:44;;;;;;;3.77;1.23;;;;;;;17.30;100.00;95945.25;5041137;27;105171;-61
2022/09/08 06:19:19;;;;;;;1.90;1.07;;;;;;;17.52;100.00;95950.69;5042863;27;103252;-60
2022/09/08 06:21:47;;;;;;;0.80;0.80;;;;;;;17.42;100.00;95956.28;5038523;27;101892;-65
2022/09/08 06:24:14;;;;;;;1.30;0.80;;;;;;;17.38;100.00;95953.44;5028764;28;105462;-60
2022/09/08 06:26:58;;;;;;;0.70;0.70;;;;;;;17.42;100.00;95948.22;5046931;27;102615;-59
2022/09/08 06:29:44;;;;;;;1.10;0.93;;;;;;;17.75;100.00;95946.91;5034527;27;101902;-59
2022/09/08 06:32:22;;;;;;;1.10;1.03;;;;;;;17.83;100.00;95938.91;5029046;28;105943;-59
2022/09/08 06:34:53;;;;;;;1.23;0.80;;;;;;;17.82;100.00;95942.69;5008389;28;106017;-60
2022/09/08 06:37:32;;;;;;;2.97;0.90;;;;;;;18.02;100.00;95941.41;5013995;28;101822;-60
2022/09/08 06:40:04;;;;;;;3.60;1.07;;;;;;;18.29;100.00;95935.84;5008305;28;105560;-59
2022/09/08 06:42:38;;;;;;;0.90;0.90;;;;;;;18.18;100.00;95934.53;5010334;28;102148;-59
2022/09/08 06:45:17;;;;;;;1.23;1.10;;;;;;;18.41;100.00;95941.47;5030084;28;103902;-60
2022/09/08 06:47:51;;;;;;;2.80;1.30;;;;;;;18.53;100.00;95942.47;5028147;28;104223;-60
2022/09/08 06:50:20;;;;;;;1.60;1.07;;;;;;;18.55;100.00;95950.25;5030593;28;101806;-60
2022/09/08 06:52:50;;;;;;;1.87;0.90;;;;;;;18.52;100.00;95946.28;5029735;27;102342;-60
2022/09/08 06:55:29;;;;;;;1.60;0.80;;;;;;;18.46;100.00;95949.41;5029208;28;104654;-61
2022/09/08 06:58:06;;;;;;;2.60;1.30;;;;;;;18.47;100.00;95954.50;5030372;27;101724;-60
2022/09/08 07:00:43;;;;;;;1.43;1.00;;;;;;;18.33;100.00;95956.50;5031292;28;104276;-61
2022/09/08 07:03:20;;;;;;;1.10;0.80;;;;;;;18.20;100.00;95964.63;5030213;27;101973;-61
2022/09/08 07:09:16;;;;;;;1.33;0.90;;;;;;;18.15;100.00;95978.22;5009446;28;105913;-61
2022/09/08 07:11:56;;;;;;;0.97;0.67;;;;;;;18.09;100.00;95984.84;5013569;28;101783;-61
2022/09/08 07:14:50;;;;;;;1.57;0.80;;;;;;;18.05;100.00;95983.84;5013448;28;102921;-61
2022/09/08 07:17:39;;;;;;;1.50;0.97;;;;;;;17.93;100.00;95989.00;5022882;27;105589;-60
2022/09/08 07:20:44;;;;;;;1.20;0.60;;;;;;;17.78;100.00;96006.28;5053796;27;102138;-60
2022/09/08 07:23:17;;;;;;;0.80;0.60;;;;;;;17.66;100.00;96011.38;5042330;27;102347;-61
2022/09/08 07:26:02;;;;;;;1.73;0.80;;;;;;;17.82;100.00;96017.22;5044668;27;103358;-61
2022/09/08 07:28:34;;;;;;;0.63;0.50;;;;;;;17.57;100.00;96031.25;5013073;28;102407;-62
2022/09/08 07:31:03;;;;;;;1.33;0.70;;;;;;;17.32;100.00;96029.06;5020212;27;105978;-60
2022/09/08 07:33:37;;;;;;;0.50;0.50;;;;;;;17.14;100.00;96032.66;5033271;27;102373;-60
2022/09/08 07:36:20;;;;;;;0.80;0.80;;;;;;;16.94;100.00;96049.97;5033853;27;102336;-60
2022/09/08 07:38:50;;;;;;;0.90;0.70;;;;;;;16.85;100.00;96050.97;5031103;28;106357;-60
2022/09/08 07:41:20;;;;;;;0.60;0.60;;;;;;;16.83;100.00;96069.25;5031883;28;102130;-60
2022/09/08 07:43:49;;;;;;;1.47;0.70;;;;;;;16.75;100.00;96067.28;5031064;28;105180;-60
2022/09/08 07:46:39;;;;;;;0.60;0.50;;;;;;;16.64;100.00;96077.41;5032242;27;102574;-60
2022/09/08 07:49:20;;;;;;;0.97;0.60;;;;;;;16.48;100.00;96078.78;5036058;28;101882;-60
2022/09/08 07:51:56;;;;;;;0.60;0.60;;;;;;;16.48;100.00;96078.78;5030461;28;105514;-60
2022/09/08 07:54:48;;;;;;;0.93;0.80;;;;;;;16.58;100.00;96083.16;5032895;27;101745;-60
2022/09/08 07:57:18;;;;;;;1.40;0.80;;;;;;;16.60;100.00;96078.28;5032474;28;102864;-60
2022/09/08 07:59:54;;;;;;;2.70;0.70;;;;;;;16.61;100.00;96086.06;5030798;28;106011;-60
2022/09/08 08:02:40;;;;;;;1.67;1.00;;;;;;;16.68;100.00;96094.50;5032634;28;101716;-60
2022/09/08 08:05:20;;;;;;;2.00;1.10;;;;;;;16.85;100.00;96102.00;5031057;28;105108;-60
2022/09/08 08:07:57;;;;;;;0.83;0.70;;;;;;;16.66;100.00;96104.75;5031904;28;102018;-61
2022/09/08 08:10:26;;;;;;;1.80;0.70;;;;;;;16.77;100.00;96110.72;5034239;28;101842;-60
2022/09/08 08:13:11;;;;;;;1.40;0.77;;;;;;;16.87;100.00;96107.88;5031399;27;104535;-60
2022/09/08 08:15:44;;;;;;;2.50;0.70;;;;;;;16.87;100.00;96106.00;5032525;28;101755;-60
2022/09/08 08:18:19;;;;;;;0.90;0.60;;;;;;;16.90;100.00;96104.59;5030888;28;105212;-60
2022/09/08 08:20:53;;;;;;;0.70;0.70;;;;;;;16.80;100.00;96110.97;5029344;27;106046;-60
2022/09/08 08:23:46;;;;;;;0.80;0.80;;;;;;;16.87;100.00;96119.44;5032265;27;101707;-60
2022/09/08 08:26:23;;;;;;;0.50;0.50;;;;;;;16.82;100.00;96116.03;5032192;28;102545;-60
2022/09/08 08:29:00;;;;;;;0.67;0.67;;;;;;;16.96;100.00;96111.47;5031901;27;102715;-60
2022/09/08 08:31:35;;;;;;;0.77;0.77;;;;;;;16.83;100.00;96113.03;5030802;28;101765;-60
2022/09/08 08:34:07;;;;;;;0.70;0.70;;;;;;;16.94;100.00;96122.50;5034522;28;102341;-60
2022/09/08 08:36:41;;;;;;;0.70;0.60;;;;;;;16.93;100.00;96122.81;5031825;28;101992;-60
2022/09/08 08:39:16;;;;;;;1.70;0.73;;;;;;;16.82;100.00;96116.03;5030668;28;105175;-60
2022/09/08 08:41:58;;;;;;;0.80;0.80;;;;;;;16.89;100.00;96116.44;5029628;28;105819;-60
2022/09/08 08:44:38;;;;;;;1.10;1.00;;;;;;;17.01;100.00;96119.44;5030252;28;101883;-60
2022/09/08 08:47:38;;;;;;;0.60;0.60;;;;;;;17.12;100.00;96110.09;5031515;28;103051;-60
2022/09/08 08:50:28;;;;;;;1.37;0.90;;;;;;;17.18;100.00;96115.09;5031352;28;102623;-60
2022/09/08 08:53:22;;;;;;;0.80;0.80;;;;;;;17.23;100.00;96111.50;5031674;28;101798;-60
2022/09/08 08:55:59;;;;;;;0.60;0.60;;;;;;;17.13;100.00;96106.31;5031748;28;102356;-60
2022/09/08 08:59:14;;;;;;;0.80;0.80;;;;;;;17.05;100.00;96113.16;5033980;28;102261;-60
2022/09/08 09:02:02;;;;;;;0.73;0.73;;;;;;;17.09;100.00;96099.94;4972339;28;105849;-60
2022/09/08 09:04:52;;;;;;;1.50;0.70;;;;;;;17.18;100.00;96101.66;4971728;28;105703;-60
2022/09/08 09:07:49;;;;;;;2.70;1.30;;;;;;;17.09;100.00;96091.88;5020093;27;102285;-60
2022/09/08 09:10:36;;;;;;;0.90;0.90;;;;;;;17.11;100.00;96090.47;5029517;28;105319;-60
2022/09/08 09:13:30;;;;;;;0.80;0.80;;;;;;;17.01;100.00;96093.34;5030840;27;102588;-60
2022/09/08 09:16:22;;;;;;;0.93;0.90;;;;;;;17.06;100.00;96089.81;5012333;27;102057;-60
2022/09/08 09:19:18;;;;;;;1.97;0.90;;;;;;;17.09;100.00;96081.13;5029860;28;105337;-60
2022/09/08 09:21:52;;;;;;;0.90;0.63;;;;;;;17.19;100.00;96083.63;5030676;27;103118;-60
2022/09/08 09:24:44;;;;;;;1.00;0.70;;;;;;;17.23;100.00;96080.03;5034490;28;101862;-60
2022/09/08 09:27:25;;;;;;;1.00;0.90;;;;;;;17.43;100.00;96081.56;5029084;28;105338;-62
2022/09/08 09:30:05;;;;;;;0.60;0.60;;;;;;;17.54;100.00;96080.25;5029596;28;101793;-60
2022/09/08 09:32:53;;;;;;;0.83;0.60;;;;;;;17.51;100.00;96070.91;5031184;27;102441;-61
2022/09/08 09:35:49;;;;;;;1.03;0.60;;;;;;;17.62;100.00;96071.47;5030585;28;102794;-60
2022/09/08 09:38:42;;;;;;;0.83;0.70;;;;;;;17.68;100.00;96070.25;5030916;27;101792;-60
2022/09/08 09:41:33;;;;;;;1.00;0.70;;;;;;;17.71;100.00;96075.81;5030538;28;102845;-60
2022/09/08 09:44:31;;;;;;;0.70;0.60;;;;;;;17.73;100.00;96076.34;5030378;28;102593;-60
2022/09/08 09:47:20;;;;;;;0.90;0.80;;;;;;;17.67;100.00;96076.75;5030954;28;101730;-61
2022/09/08 09:50:15;;;;;;;0.70;0.70;;;;;;;17.54;100.00;96085.63;5033691;28;102798;-60
2022/09/08 09:52:51;;;;;;;0.60;0.60;;;;;;;17.59;100.00;96080.94;5027325;27;101848;-60
2022/09/08 09:55:51;;;;;;;0.83;0.60;;;;;;;17.74;100.00;96074.41;5030937;27;102339;-59
2022/09/08 09:58:43;;;;;;;0.50;0.50;;;;;;;17.81;100.00;96078.28;5039793;27;102673;-60
2022/09/08 10:01:43;;;;;;;0.50;0.50;;;;;;;18.02;100.00;96076.75;5029719;27;101999;-63
2022/09/08 10:04:53;;;;;;;0.50;0.40;;;;;;;18.11;100.00;96087.56;5028479;27;102365;-61
2022/09/08 10:07:45;;;;;;;0.50;0.50;;;;;;;18.17;100.00;96097.13;5000301;27;105702;-61
2022/09/08 10:10:46;;;;;;;0.83;0.73;;;;;;;18.11;100.00;96106.41;5047095;27;102078;-60
2022/09/08 10:13:37;;;;;;;1.87;0.90;;;;;;;17.96;100.00;96090.59;5029319;27;103711;-60
2022/09/08 10:16:49;;;;;;;1.17;1.07;;;;;;;18.05;100.00;96083.41;5053029;27;101894;-60
2022/09/08 10:19:56;;;;;;;0.90;0.90;;;;;;;17.93;100.00;96088.53;5051099;27;102585;-60
2022/09/08 10:22:41;;;;;;;1.77;1.60;;;;;;;17.82;100.00;96089.88;5040007;27;102748;-61
2022/09/08 10:25:48;;;;;;;0.77;0.70;;;;;;;17.60;100.00;96076.34;5045316;27;101744;-60
2022/09/08 10:28:34;;;;;;;0.80;0.80;;;;;;;17.72;100.00;96073.94;5029227;28;103820;-60
2022/09/08 10:31:32;;;;;;;0.60;0.60;;;;;;;17.73;100.00;96065.56;5008639;28;105792;-61
2022/09/08 10:34:26;;;;;;;1.73;0.77;;;;;;;17.75;100.00;96057.19;5044993;27;102069;-60
2022/09/08 10:37:14;;;;;;;0.73;0.73;;;;;;;17.81;100.00;96053.28;5010290;28;102418;-60
2022/09/08 10:39:58;;;;;;;1.50;0.87;;;;;;;17.68;100.00;96052.25;5018577;27;102620;-60
2022/09/08 10:42:44;;;;;;;0.80;0.80;;;;;;;17.87;100.00;96052.09;5028943;27;105105;-60
2022/09/08 10:45:38;;;;;;;1.37;0.70;;;;;;;18.07;100.00;96051.59;5043097;27;106212;-60
2022/09/08 10:48:44;;;;;;;1.20;1.10;;;;;;;18.32;100.00;96051.03;5052120;27;102179;-60
2022/09/08 10:51:32;;;;;;;0.40;0.40;;;;;;;18.04;100.00;96054.91;5048943;27;105758;-60
2022/09/08 10:54:34;;;;;;;0.40;0.40;;;;;;;18.10;100.00;96056.38;5034457;27;102490;-60
2022/09/08 10:57:19;;;;;;;1.03;0.40;;;;;;;18.11;100.00;96042.63;5041827;27;101718;-60
2022/09/08 11:00:04;;;;;;;0.77;0.50;;;;;;;18.04;100.00;96044.16;5052568;27;105600;-60
2022/09/08 11:02:33;;;;;;;0.40;0.40;;;;;;;17.98;100.00;96059.59;5049855;27;105376;-60
2022/09/08 11:05:31;;;;;;;0.40;0.40;;;;;;;17.86;100.00;96053.16;5057221;27;101841;-60
2022/09/08 11:08:37;;;;;;;0.97;0.40;;;;;;;17.73;100.00;96049.44;5050654;27;105586;-60
2022/09/08 11:11:45;;;;;;;0.30;0.30;;;;;;;18.21;100.00;96046.97;5033632;27;101803;-60
2022/09/08 11:14:38;;;;;;;0.33;0.33;;;;;;;18.35;100.00;96047.72;5002762;28;102209;-60
2022/09/08 11:17:22;;;;;;;0.40;0.40;;;;;;;18.67;100.00;96036.66;5011454;28;105568;-60
2022/09/08 11:20:29;;;;;;;0.30;0.30;;;;;;;19.06;100.00;96039.34;5018699;27;102004;-60
2022/09/08 11:23:07;;;;;;;0.37;0.37;;;;;;;19.51;100.00;96036.19;5031546;28;102020;-60
2022/09/08 11:26:03;;;;;;;1.63;0.50;;;;;;;19.58;100.00;96044.63;5031240;27;105577;-60
2022/09/08 11:28:40;;;;;;;0.50;0.50;;;;;;;19.41;100.00;96049.19;5066225;27;101813;-60
2022/09/08 11:31:22;;;;;;;0.47;0.47;;;;;;;19.24;100.00;96049.13;5034914;28;104819;-60
2022/09/08 11:34:11;;;;;;;1.00;0.50;;;;;;;19.38;100.00;96052.50;5013299;28;101707;-60
2022/09/08 11:37:02;;;;;;;0.50;0.50;;;;;;;19.38;100.00;96066.78;5013244;28;102540;-62
2022/09/08 11:39:46;;;;;;;0.77;0.50;;;;;;;19.63;100.00;96065.25;5012452;28;102601;-62
2022/09/08 11:42:54;;;;;;;0.30;0.20;;;;;;;19.05;100.00;96062.03;5013072;28;101685;-61
2022/09/08 11:45:29;;;;;;;1.10;0.30;;;;;;;19.08;100.00;96064.88;5009808;28;105335;-61
2022/09/08 11:48:18;;;;;;;0.83;0.37;;;;;;;19.11;100.00;96071.56;5012298;28;102692;-60
2022/09/08 11:51:20;;;;;;;2.00;0.47;;;;;;;19.12;100.00;96073.94;5013168;28;101676;-60
2022/09/08 11:54:26;;;;;;;1.37;0.50;;;;;;;19.39;100.00;96067.56;5000146;28;104190;-61
2022/09/08 11:57:45;;;;;;;1.53;0.40;;;;;;;20.18;100.00;96074.38;5010134;28;102635;-62
2022/09/08 12:00:34;;;;;;;2.10;0.23;;;;;;;20.44;100.00;96078.63;5050758;27;102281;-62
2022/09/08 12:03:43;;;;;;;0.40;0.30;;;;;;;20.27;100.00;96067.84;5052318;27;102556;-61
2022/09/08 12:07:04;;;;;;;0.63;0.50;;;;;;;19.78;100.00;96062.09;5051426;27;101855;-61
2022/09/08 12:10:10;;;;;;;0.60;0.50;;;;;;;20.27;100.00;96077.88;5036257;27;102849;-62
2022/09/08 12:12:56;;;;;;;0.43;0.43;;;;;;;20.29;100.00;96078.34;5032104;27;101823;-62
2022/09/08 12:15:55;;;;;;;0.87;0.40;;;;;;;20.50;100.00;96071.16;5032672;27;102101;-62
2022/09/08 12:18:35;;;;;;;0.53;0.40;;;;;;;19.91;100.00;96071.94;5030900;28;104826;-61
2022/09/08 12:21:41;;;;;;;0.43;0.30;;;;;;;19.67;100.00;96055.44;5032109;28;102605;-60
2022/09/08 12:24:21;;;;;;;2.00;0.40;;;;;;;19.95;100.00;96070.97;5016066;28;101700;-61
2022/09/08 12:26:59;;;;;;;0.40;0.40;;;;;;;20.17;100.00;96065.47;5010358;28;105387;-61